Hauptseite
METAR-TAF:

METAR-TAF

Flughäfen :

Flughafen Madrid-Barajas

Madrid, Spanien

Breite: 40-27N, Länge: 003-33W, Höhe: 609 m

Beobachtung

Neuester Wetterbericht von vor 29 Minuten, um 08:00 UTC
Wind 6 kt aus Nord/Nordwest
Temperatur 12°C
Luftfeuchtigkeit 88%
Luftdruck 1015 hPa
Sichtweite 10 km oder mehr
keine Wolken unter 1500 m und keine Kumulonimbus oder Gewitterwolken

METAR: LEMD 160800Z 34006KT CAVOK 12/10 Q1015 NOSIG

Zeit: 10:29 (08:29 UTC)

Prognose

Neuester Wetterbericht von vor 3 Stunden und 29 Minuten, um 05:00 UTC
Gültige Prognose vom 16 um 06 UTC bis 17 um 12 UTC
Wind 5 kt aus unterschiedlichen Richtungen
Sichtweite 10 km oder mehr
Aufgelockert bewölkt in der Höhe von 4000 ft

TAF: LEMD 160500Z 1606/1712 VRB05KT 9999 SCT040 TX22/1615Z TN08/1706Z

Wetterbeobachtungen und Prognosen von mehr als 4000 Flughäfen (METAR und TAF Bericht).

Die verfügbaren Stationen werden durch gelbe und rote Markierungen auf der Karte dargestellt.

Führen Sie die Maus auf sie, um den Namen der Station zu sehen.

Darauf klicken, um die Beobachtung von Wetterbeobachtungen und Prognosen zu sehen.

Um die Karte zu ändern : klicken Sie auf den grünen Tasten mit einem schwarzen Kreuz Zum Vergrößern, auf den grünen Button mit einem Gedankenstrich zu verkleinern, oder auf die grünen Pfeile für benachbarte Karten.


METAR-TAF: